createdAt,value
2023-03-02T00:01:40.203Z,78.32
2023-03-02T00:04:09.860Z,78.24
2023-03-02T00:06:38.163Z,78.43
2023-03-02T00:09:06.468Z,78.26
2023-03-02T00:11:35.740Z,78.31
2023-03-02T00:14:07.179Z,78.45
2023-03-02T00:16:37.747Z,78.46
2023-03-02T00:19:06.409Z,78.39
2023-03-02T00:21:34.790Z,78.40
2023-03-02T00:24:03.375Z,78.61
2023-03-02T00:26:35.453Z,78.59
2023-03-02T00:29:03.972Z,78.61
2023-03-02T00:31:32.229Z,78.81
2023-03-02T00:34:01.637Z,78.86
2023-03-02T00:36:30.019Z,78.96
2023-03-02T00:38:58.507Z,78.94
2023-03-02T00:41:26.947Z,79.01
2023-03-02T00:43:55.830Z,79.10
2023-03-02T00:46:24.610Z,79.15
2023-03-02T00:48:57.201Z,79.22
2023-03-02T00:51:26.910Z,79.17
2023-03-02T00:53:56.033Z,79.18
2023-03-02T00:56:24.085Z,79.37
2023-03-02T00:58:52.410Z,79.37
2023-03-02T01:01:20.938Z,79.51
2023-03-02T01:03:51.278Z,79.54
2023-03-02T01:06:20.924Z,79.53
2023-03-02T01:08:49.261Z,79.46
2023-03-02T01:11:21.935Z,79.49
2023-03-02T01:13:50.635Z,79.42
2023-03-02T01:16:19.168Z,79.52
2023-03-02T01:18:53.011Z,79.59
2023-03-02T01:21:21.628Z,79.35
2023-03-02T01:23:51.929Z,79.42
2023-03-02T01:26:20.128Z,79.24
2023-03-02T01:28:50.040Z,79.33
2023-03-02T01:31:18.498Z,79.31
2023-03-02T01:33:47.080Z,79.30
2023-03-02T01:36:22.536Z,79.21
2023-03-02T01:38:51.624Z,79.18
2023-03-02T01:41:20.014Z,79.21
2023-03-02T01:43:48.380Z,79.27
2023-03-02T01:46:19.300Z,79.33
2023-03-02T01:48:54.681Z,79.29
2023-03-02T01:51:35.242Z,79.28
2023-03-02T01:54:08.772Z,79.31
2023-03-02T01:56:39.595Z,79.39
2023-03-02T01:59:10.139Z,79.35
2023-03-02T02:01:41.607Z,79.31
2023-03-02T02:04:09.755Z,79.41
2023-03-02T02:06:39.236Z,79.49
2023-03-02T02:09:09.442Z,79.40
2023-03-02T02:11:38.435Z,79.43
2023-03-02T02:14:06.826Z,79.55
2023-03-02T02:16:39.220Z,79.55
2023-03-02T02:19:19.142Z,79.68
2023-03-02T02:21:47.524Z,79.66
2023-03-02T02:24:27.692Z,79.56
2023-03-02T02:27:00.151Z,79.72
2023-03-02T02:29:45.739Z,79.76
2023-03-02T02:32:17.845Z,79.81
2023-03-02T02:34:52.326Z,79.87
2023-03-02T02:37:24.253Z,79.86
2023-03-02T02:39:52.589Z,79.81
2023-03-02T02:42:27.596Z,79.79
2023-03-02T02:44:58.072Z,79.95
2023-03-02T02:47:26.411Z,79.94
2023-03-02T02:49:55.162Z,79.97
2023-03-02T02:52:25.177Z,79.92
2023-03-02T02:54:56.973Z,80.01
2023-03-02T02:57:26.932Z,80.00
2023-03-02T02:59:56.295Z,80.15
2023-03-02T03:02:26.435Z,80.12
2023-03-02T03:05:03.615Z,80.17
2023-03-02T03:07:33.743Z,80.20
2023-03-02T03:10:17.997Z,80.20
2023-03-02T03:12:52.187Z,80.13
2023-03-02T03:15:22.206Z,80.25
2023-03-02T03:17:56.185Z,80.24
2023-03-02T03:20:25.225Z,80.33
2023-03-02T03:22:54.202Z,80.35
2023-03-02T03:25:24.937Z,80.17
2023-03-02T03:27:53.726Z,80.25
2023-03-02T03:30:22.959Z,80.26
2023-03-02T03:32:53.924Z,80.29
2023-03-02T03:35:22.574Z,80.40
2023-03-02T03:37:51.909Z,80.26
2023-03-02T03:40:27.524Z,80.41
2023-03-02T03:42:57.407Z,80.41
2023-03-02T03:45:25.928Z,80.36
2023-03-02T03:47:54.685Z,80.33
2023-03-02T03:50:23.246Z,80.35
2023-03-02T03:52:52.175Z,80.39
2023-03-02T03:55:24.525Z,80.28
2023-03-02T03:57:53.626Z,80.40
2023-03-02T04:00:22.312Z,80.47
2023-03-02T04:02:53.909Z,80.27
2023-03-02T04:05:23.008Z,80.39
2023-03-02T04:07:53.908Z,80.24
2023-03-02T04:10:22.789Z,80.33
2023-03-02T04:12:56.389Z,80.44
2023-03-02T04:15:25.739Z,80.41
2023-03-02T04:17:54.489Z,80.34
2023-03-02T04:20:24.398Z,80.33
2023-03-02T04:22:56.917Z,80.38
2023-03-02T04:25:27.088Z,80.27
2023-03-02T04:27:59.884Z,80.25
2023-03-02T04:30:30.473Z,80.16
2023-03-02T04:32:59.616Z,80.21
2023-03-02T04:35:29.648Z,80.03
2023-03-02T04:37:59.240Z,80.01
2023-03-02T04:40:27.625Z,79.97
2023-03-02T04:42:56.180Z,79.95
2023-03-02T04:45:24.695Z,79.93
2023-03-02T04:47:54.533Z,79.81
2023-03-02T04:50:26.521Z,79.89
2023-03-02T04:52:55.372Z,79.73
2023-03-02T04:55:25.606Z,79.63
2023-03-02T04:57:53.873Z,79.59
2023-03-02T05:00:22.304Z,79.40
2023-03-02T05:02:50.720Z,79.30
2023-03-02T05:05:24.445Z,79.19
2023-03-02T05:07:52.842Z,79.03
2023-03-02T05:10:22.101Z,78.93
2023-03-02T05:12:55.907Z,78.99
2023-03-02T05:15:38.872Z,78.77
2023-03-02T05:18:08.694Z,78.71
2023-03-02T05:20:37.963Z,78.66
2023-03-02T05:23:12.978Z,78.57
2023-03-02T05:25:42.869Z,78.61
2023-03-02T05:28:11.390Z,78.51
2023-03-02T05:30:41.279Z,78.27
2023-03-02T05:33:09.521Z,78.24
2023-03-02T05:35:37.705Z,78.08
2023-03-02T05:38:06.166Z,78.01
2023-03-02T05:40:34.615Z,77.87
2023-03-02T05:43:03.402Z,77.72
2023-03-02T05:45:33.882Z,77.50
2023-03-02T05:48:03.222Z,77.53
2023-03-02T05:50:31.912Z,77.35
2023-03-02T05:53:03.279Z,77.37
2023-03-02T05:55:37.329Z,77.24
2023-03-02T05:58:10.157Z,77.13
2023-03-02T06:00:40.750Z,76.94
2023-03-02T06:03:09.091Z,76.85
2023-03-02T06:05:38.873Z,76.70
2023-03-02T06:08:11.661Z,76.46
2023-03-02T06:10:40.046Z,76.20
2023-03-02T06:13:08.620Z,76.20
2023-03-02T06:15:37.251Z,75.88
2023-03-02T06:18:07.120Z,75.44
2023-03-02T06:20:35.291Z,75.69
2023-03-02T06:23:03.896Z,75.18
2023-03-02T06:25:32.800Z,74.95
2023-03-02T06:28:01.095Z,74.80
2023-03-02T06:30:31.397Z,74.63
2023-03-02T06:33:00.572Z,74.48
2023-03-02T06:35:29.465Z,74.31
2023-03-02T06:37:58.000Z,74.07
2023-03-02T06:40:27.356Z,73.87
2023-03-02T06:50:25.012Z,73.26
2023-03-02T06:52:53.633Z,73.20
2023-03-02T06:55:22.063Z,72.96
2023-03-02T06:57:50.534Z,72.98
2023-03-02T07:00:26.014Z,72.79
2023-03-02T07:02:56.667Z,72.70
2023-03-02T07:05:25.155Z,72.66
2023-03-02T07:07:55.105Z,72.63
2023-03-02T07:10:23.772Z,72.36
2023-03-02T07:12:53.023Z,72.42
2023-03-02T07:15:22.721Z,72.42
2023-03-02T07:17:50.974Z,72.61
2023-03-02T07:20:19.445Z,72.61
2023-03-02T07:22:48.973Z,72.44
2023-03-02T07:25:17.117Z,72.21
2023-03-02T07:27:49.855Z,72.51
2023-03-02T07:30:21.386Z,72.56
2023-03-02T07:32:49.630Z,72.50
2023-03-02T07:35:18.162Z,72.59
2023-03-02T07:37:46.910Z,72.63
2023-03-02T07:40:15.281Z,72.64
2023-03-02T07:42:44.137Z,72.51
2023-03-02T07:45:17.170Z,72.29
2023-03-02T07:47:45.334Z,72.42
2023-03-02T07:50:13.752Z,72.26
2023-03-02T07:52:43.035Z,72.41
2023-03-02T07:55:11.293Z,72.27
2023-03-02T07:57:39.626Z,72.10
2023-03-02T08:00:08.868Z,72.14
2023-03-02T08:02:41.800Z,72.16
2023-03-02T08:05:13.473Z,72.05
2023-03-02T08:07:47.188Z,71.75
2023-03-02T08:10:15.439Z,71.81
2023-03-02T08:12:44.338Z,72.00
2023-03-02T08:15:12.396Z,71.91
2023-03-02T08:17:41.460Z,71.68
2023-03-02T08:20:15.454Z,71.47
2023-03-02T08:22:43.916Z,71.18
2023-03-02T08:25:12.470Z,71.22
2023-03-02T08:27:40.695Z,71.29
2023-03-02T08:30:10.893Z,70.80
2023-03-02T08:32:39.402Z,70.71
2023-03-02T08:35:09.500Z,70.67
2023-03-02T08:37:38.695Z,70.77
2023-03-02T08:40:07.569Z,70.78
2023-03-02T08:42:35.698Z,70.65
2023-03-02T08:45:06.763Z,70.58
2023-03-02T08:47:39.176Z,70.53
2023-03-02T08:50:08.613Z,70.37
2023-03-02T08:52:36.644Z,70.36
2023-03-02T08:55:05.625Z,70.50
2023-03-02T08:57:35.194Z,69.85
2023-03-02T09:00:08.698Z,69.46
2023-03-02T09:02:37.212Z,69.19
2023-03-02T09:05:07.079Z,69.11
2023-03-02T09:07:35.230Z,69.08
2023-03-02T09:10:09.674Z,69.31
2023-03-02T09:12:37.853Z,69.42
2023-03-02T09:15:07.112Z,69.43
2023-03-02T09:17:37.588Z,69.50
2023-03-02T09:20:07.629Z,69.61
2023-03-02T09:22:38.787Z,69.62
2023-03-02T09:32:43.869Z,69.23
2023-03-02T09:35:12.133Z,68.81
2023-03-02T09:37:42.270Z,68.85
2023-03-02T09:40:17.755Z,68.69
2023-03-02T09:42:59.038Z,68.66
2023-03-02T09:45:33.848Z,68.54
2023-03-02T09:48:15.908Z,68.12
2023-03-02T09:50:52.378Z,68.32
2023-03-02T09:53:56.031Z,68.33
2023-03-02T09:56:24.964Z,68.40
2023-03-02T09:59:03.677Z,68.20
2023-03-02T10:01:42.855Z,67.97
2023-03-02T10:04:28.093Z,67.81
2023-03-02T10:06:59.234Z,67.79
2023-03-02T10:09:27.408Z,68.14
2023-03-02T10:12:08.700Z,68.06
2023-03-02T10:14:59.081Z,68.01
2023-03-02T10:17:39.629Z,67.71
2023-03-02T10:20:34.542Z,67.43
2023-03-02T10:23:29.248Z,67.13
2023-03-02T10:26:13.391Z,66.74
2023-03-02T10:28:43.921Z,66.37
2023-03-02T10:31:32.212Z,66.12
2023-03-02T10:34:00.462Z,66.20
2023-03-02T10:36:31.650Z,66.41
2023-03-02T10:39:01.066Z,66.57
2023-03-02T10:41:40.680Z,66.45
2023-03-02T10:44:27.801Z,66.49
2023-03-02T10:46:56.012Z,66.49
2023-03-02T10:49:28.561Z,66.22
2023-03-02T10:52:02.163Z,66.11
2023-03-02T10:54:33.467Z,66.18
2023-03-02T10:57:04.199Z,66.32
2023-03-02T10:59:41.031Z,66.39
2023-03-02T11:02:18.452Z,66.49
2023-03-02T11:04:46.492Z,66.32
2023-03-02T11:07:18.991Z,66.39
2023-03-02T11:10:02.207Z,66.34
2023-03-02T11:12:31.154Z,66.21
2023-03-02T11:15:29.012Z,66.06
2023-03-02T11:18:12.638Z,66.20
2023-03-02T11:20:46.016Z,66.32
2023-03-02T11:23:15.951Z,66.23
2023-03-02T11:25:51.016Z,66.40
2023-03-02T11:28:47.430Z,66.32
2023-03-02T11:31:28.430Z,66.34
2023-03-02T11:34:15.635Z,66.46
2023-03-02T11:37:06.641Z,66.43
2023-03-02T11:39:55.556Z,66.58
2023-03-02T11:42:36.298Z,66.46
2023-03-02T11:45:29.835Z,66.44
2023-03-02T11:48:10.606Z,66.37
2023-03-02T11:50:53.615Z,66.43
2023-03-02T11:53:23.929Z,66.21
2023-03-02T11:55:52.049Z,66.24
2023-03-02T11:58:22.157Z,66.00
2023-03-02T12:00:50.499Z,65.74
2023-03-02T12:03:21.295Z,65.64
2023-03-02T12:05:52.296Z,65.51
2023-03-02T12:08:22.149Z,65.64
2023-03-02T12:11:03.677Z,65.31
2023-03-02T12:13:32.400Z,65.47
2023-03-02T12:16:00.623Z,65.28
2023-03-02T12:18:49.083Z,65.37
2023-03-02T12:21:24.081Z,65.61
2023-03-02T12:23:52.494Z,65.40
2023-03-02T12:26:20.424Z,65.53
2023-03-02T12:29:01.830Z,65.77
2023-03-02T12:31:47.407Z,65.90
2023-03-02T12:34:38.067Z,66.10
2023-03-02T12:37:18.360Z,65.90
2023-03-02T12:40:11.710Z,66.20
2023-03-02T12:43:12.398Z,66.29
2023-03-02T12:46:13.386Z,66.49
2023-03-02T12:49:07.197Z,66.47
2023-03-02T12:51:52.316Z,66.61
2023-03-02T12:54:23.220Z,66.47
2023-03-02T12:57:19.013Z,66.16
2023-03-02T12:59:55.406Z,65.67
2023-03-02T13:02:26.803Z,65.45
2023-03-02T13:05:08.524Z,64.91
2023-03-02T13:08:24.455Z,65.18
2023-03-02T13:10:54.491Z,65.47
2023-03-02T13:13:27.151Z,65.46
2023-03-02T13:16:00.506Z,65.84
2023-03-02T13:18:32.273Z,66.03
2023-03-02T13:21:01.182Z,66.31
2023-03-02T13:23:30.746Z,66.38
2023-03-02T13:26:00.775Z,66.48
2023-03-02T13:28:35.194Z,66.29
2023-03-02T13:31:05.620Z,66.69
2023-03-02T13:33:43.699Z,66.52
2023-03-02T13:36:41.421Z,66.75
2023-03-02T13:39:30.100Z,66.88
2023-03-02T13:41:59.713Z,66.82
2023-03-02T13:44:29.719Z,66.92
2023-03-02T13:46:58.291Z,66.91
2023-03-02T13:49:32.629Z,66.68
2023-03-02T13:52:13.748Z,66.79
2023-03-02T13:54:42.282Z,66.93
2023-03-02T13:57:16.232Z,67.00
2023-03-02T13:59:45.365Z,67.14
2023-03-02T14:02:25.238Z,67.11
2023-03-02T14:04:53.589Z,67.19
2023-03-02T14:07:21.678Z,67.24
2023-03-02T14:09:49.668Z,67.41
2023-03-02T14:12:29.835Z,67.62
2023-03-02T14:14:59.867Z,67.75
2023-03-02T14:17:28.017Z,67.70
2023-03-02T14:19:56.509Z,67.94
2023-03-02T14:26:58.728Z,68.24
2023-03-02T14:29:34.502Z,68.12
2023-03-02T14:32:06.797Z,68.00
2023-03-02T14:34:37.215Z,68.43
2023-03-02T14:37:14.629Z,68.32
2023-03-02T14:39:46.995Z,68.70
2023-03-02T14:42:16.342Z,68.74
2023-03-02T14:44:49.666Z,69.00
2023-03-02T14:47:19.536Z,69.21
2023-03-02T14:49:48.973Z,69.33
2023-03-02T14:52:23.559Z,69.57
2023-03-02T14:54:56.644Z,69.70
2023-03-02T14:57:26.013Z,70.00
2023-03-02T14:59:55.035Z,70.13
2023-03-02T15:02:26.138Z,70.23
2023-03-02T15:05:14.976Z,70.40
2023-03-02T15:07:44.477Z,70.65
2023-03-02T15:10:17.799Z,70.70
2023-03-02T15:12:45.980Z,70.96
2023-03-02T15:15:16.471Z,70.96
2023-03-02T15:17:44.584Z,71.06
2023-03-02T15:20:17.140Z,71.42
2023-03-02T15:22:46.968Z,71.40
2023-03-02T15:25:15.321Z,71.53
2023-03-02T15:27:43.365Z,71.65
2023-03-02T15:30:12.405Z,71.86
2023-03-02T15:32:40.543Z,71.80
2023-03-02T15:35:08.878Z,71.76
2023-03-02T15:37:39.266Z,72.05
2023-03-02T15:40:08.624Z,72.00
2023-03-02T15:42:37.191Z,72.14
2023-03-02T15:45:06.242Z,72.16
2023-03-02T15:47:34.416Z,72.15
2023-03-02T15:50:02.368Z,72.17
2023-03-02T15:52:33.145Z,72.20
2023-03-02T15:55:01.110Z,72.28
2023-03-02T15:57:29.778Z,72.34
2023-03-02T16:00:04.866Z,72.41
2023-03-02T16:02:35.773Z,72.13
2023-03-02T16:05:09.421Z,72.26
2023-03-02T16:07:39.666Z,72.50
2023-03-02T16:10:08.323Z,72.23
2023-03-02T16:12:37.095Z,72.44
2023-03-02T16:15:05.491Z,72.48
2023-03-02T16:17:33.772Z,72.44
2023-03-02T16:20:01.956Z,72.43
2023-03-02T16:22:30.819Z,72.48
2023-03-02T16:25:00.012Z,72.53
2023-03-02T16:27:28.008Z,72.43
2023-03-02T16:29:56.007Z,72.55
2023-03-02T16:32:24.281Z,72.58
2023-03-02T16:34:55.226Z,72.41
2023-03-02T16:37:23.268Z,72.49
2023-03-02T16:39:51.462Z,72.54
2023-03-02T16:42:24.123Z,72.54
2023-03-02T16:44:52.603Z,72.50
2023-03-02T16:47:20.570Z,72.62
2023-03-02T16:49:48.532Z,72.40
2023-03-02T16:52:17.683Z,72.47
2023-03-02T16:54:46.484Z,72.46
2023-03-02T16:57:14.583Z,72.60
2023-03-02T16:59:43.160Z,72.44
2023-03-02T17:02:11.793Z,72.61
2023-03-02T17:04:42.775Z,72.66
2023-03-02T17:07:10.921Z,72.80
2023-03-02T17:09:41.730Z,72.68
2023-03-02T17:12:12.163Z,72.94
2023-03-02T17:14:41.416Z,72.72
2023-03-02T17:17:11.086Z,72.94
2023-03-02T17:19:40.251Z,73.08
2023-03-02T17:22:08.385Z,73.04
2023-03-02T17:24:36.461Z,73.12
2023-03-02T17:27:10.696Z,73.09
2023-03-02T17:29:48.835Z,73.15
2023-03-02T17:32:17.455Z,73.15
2023-03-02T17:34:45.379Z,73.29
2023-03-02T17:37:13.843Z,73.26
2023-03-02T17:39:42.145Z,73.39
2023-03-02T17:42:10.605Z,73.40
2023-03-02T17:44:40.218Z,73.42
2023-03-02T17:47:11.265Z,73.37
2023-03-02T17:49:43.768Z,73.55
2023-03-02T17:52:17.519Z,73.34
2023-03-02T17:54:46.235Z,73.35
2023-03-02T17:57:14.471Z,73.57
2023-03-02T17:59:45.925Z,73.50
2023-03-02T18:02:14.030Z,73.35
2023-03-02T18:04:42.829Z,73.46
2023-03-02T18:07:11.446Z,73.35
2023-03-02T18:09:44.894Z,73.36
2023-03-02T18:12:12.905Z,73.39
2023-03-02T18:14:41.426Z,73.32
2023-03-02T18:17:11.130Z,73.32
2023-03-02T18:19:40.418Z,73.25
2023-03-02T18:22:08.494Z,73.38
2023-03-02T18:24:36.746Z,73.40
2023-03-02T18:27:05.613Z,73.37
2023-03-02T18:29:35.182Z,73.25
2023-03-02T18:32:03.446Z,73.40
2023-03-02T18:34:32.149Z,73.25
2023-03-02T18:37:00.311Z,73.26
2023-03-02T18:39:28.605Z,73.26
2023-03-02T18:41:56.895Z,73.19
2023-03-02T18:44:28.094Z,73.17
2023-03-02T18:46:58.824Z,73.14
2023-03-02T18:49:27.769Z,73.12
2023-03-02T18:51:59.841Z,73.06
2023-03-02T18:54:29.233Z,73.10
2023-03-02T18:56:57.304Z,73.13
2023-03-02T18:59:25.496Z,73.00
2023-03-02T19:01:53.695Z,73.15
2023-03-02T19:04:26.348Z,72.99
2023-03-02T19:07:02.913Z,72.97
2023-03-02T19:09:32.247Z,73.08
2023-03-02T19:12:01.657Z,72.97
2023-03-02T19:14:31.497Z,73.05
2023-03-02T19:17:00.938Z,72.81
2023-03-02T19:19:30.364Z,73.03
2023-03-02T19:21:58.990Z,72.91
2023-03-02T19:24:27.302Z,72.92
2023-03-02T19:26:55.408Z,72.84
2023-03-02T19:29:26.318Z,72.78
2023-03-02T19:31:55.740Z,72.70
2023-03-02T19:34:25.037Z,72.68
2023-03-02T19:36:53.647Z,72.81
2023-03-02T19:39:24.483Z,72.68
2023-03-02T19:41:52.689Z,72.75
2023-03-02T19:44:20.915Z,72.81
2023-03-02T19:46:49.098Z,72.73
2023-03-02T19:49:17.406Z,72.78
2023-03-02T19:51:46.789Z,72.68
2023-03-02T19:54:15.407Z,72.92
2023-03-02T19:56:49.855Z,72.77
2023-03-02T19:59:18.007Z,72.70
2023-03-02T20:01:47.859Z,72.65
2023-03-02T20:04:16.404Z,72.76
2023-03-02T20:06:46.028Z,72.74
2023-03-02T20:09:19.848Z,72.48
2023-03-02T20:11:52.641Z,72.44
2023-03-02T20:14:33.524Z,72.56
2023-03-02T20:17:05.669Z,72.49
2023-03-02T20:19:36.697Z,72.53
2023-03-02T20:22:07.479Z,72.46
2023-03-02T20:24:41.652Z,72.41
2023-03-02T20:27:12.672Z,72.30
2023-03-02T20:29:44.630Z,72.40
2023-03-02T20:32:16.679Z,72.48
2023-03-02T20:34:47.265Z,72.44
2023-03-02T20:37:18.464Z,72.38
2023-03-02T20:39:49.793Z,72.49
2023-03-02T20:42:21.866Z,72.53
2023-03-02T20:44:52.392Z,72.48
2023-03-02T20:47:23.331Z,72.73
2023-03-02T20:49:55.687Z,72.69
2023-03-02T20:52:26.547Z,72.97
2023-03-02T20:54:57.434Z,72.84
2023-03-02T20:57:28.019Z,72.88
2023-03-02T20:59:59.630Z,73.07
2023-03-02T21:02:30.019Z,73.13
2023-03-02T21:05:03.681Z,73.21
2023-03-02T21:07:35.861Z,73.31
2023-03-02T21:10:09.819Z,73.32
2023-03-02T21:20:20.201Z,73.60
2023-03-02T21:22:48.215Z,73.60
2023-03-02T21:25:19.434Z,73.71
2023-03-02T21:27:47.897Z,73.76
2023-03-02T21:30:20.334Z,73.82
2023-03-02T21:32:50.379Z,73.90
2023-03-02T21:35:23.424Z,74.07
2023-03-02T21:37:54.342Z,74.21
2023-03-02T21:40:28.000Z,74.28
2023-03-02T21:42:57.123Z,74.33
2023-03-02T21:45:25.300Z,74.37
2023-03-02T21:47:53.886Z,74.56
2023-03-02T21:50:24.227Z,74.57
2023-03-02T21:52:52.326Z,74.65
2023-03-02T21:55:20.759Z,74.78
2023-03-02T21:57:48.973Z,74.83
2023-03-02T22:00:23.316Z,74.78
2023-03-02T22:02:51.844Z,74.89
2023-03-02T22:05:20.466Z,75.05
2023-03-02T22:07:49.726Z,75.05
2023-03-02T22:10:25.067Z,75.09
2023-03-02T22:12:55.192Z,75.34
2023-03-02T22:15:24.396Z,75.39
2023-03-02T22:17:56.775Z,75.58
2023-03-02T22:20:25.013Z,75.60
2023-03-02T22:22:53.329Z,75.70
2023-03-02T22:25:21.575Z,75.97
2023-03-02T22:27:49.987Z,76.02
2023-03-02T22:30:21.080Z,75.82
2023-03-02T22:32:49.870Z,76.06
2023-03-02T22:35:23.746Z,76.03
2023-03-02T22:37:54.776Z,76.16
2023-03-02T22:40:34.168Z,76.37
2023-03-02T22:43:25.944Z,76.29
2023-03-02T22:45:54.327Z,76.57
2023-03-02T22:48:25.646Z,76.56
2023-03-02T22:50:53.769Z,76.57
2023-03-02T22:53:25.381Z,76.84
2023-03-02T22:56:00.696Z,76.69
2023-03-02T22:58:32.521Z,76.89
2023-03-02T23:01:01.324Z,76.96
2023-03-02T23:03:41.422Z,77.16
2023-03-02T23:06:24.961Z,77.29
2023-03-02T23:09:00.619Z,77.33
2023-03-02T23:11:29.241Z,77.50
2023-03-02T23:13:57.377Z,77.59
2023-03-02T23:16:27.208Z,77.50
2023-03-02T23:18:56.629Z,77.74
2023-03-02T23:21:46.468Z,77.59
2023-03-02T23:24:14.851Z,77.72
2023-03-02T23:26:43.000Z,77.70
2023-03-02T23:29:31.174Z,77.82
2023-03-02T23:31:59.627Z,78.18
2023-03-02T23:34:31.826Z,78.01
2023-03-02T23:37:06.133Z,78.26
2023-03-02T23:39:36.019Z,78.46
2023-03-02T23:42:04.175Z,78.46
2023-03-02T23:44:32.215Z,78.43
2023-03-02T23:47:01.429Z,78.46
2023-03-02T23:49:31.304Z,78.55
2023-03-02T23:51:59.859Z,78.60
2023-03-02T23:54:28.578Z,78.70
2023-03-02T23:56:57.073Z,78.81
2023-03-02T23:59:28.130Z,79.03
